sensor_id;sensor_type;location;lat;lon;timestamp;pressure;altitude;pressure_sealevel;temperature
30765;BMP180;494;48.744;10.106;2023-04-03T00:01:38;96174.00;;;6.00
30765;BMP180;494;48.744;10.106;2023-04-03T00:04:08;96417.00;;;3.00
30765;BMP180;494;48.744;10.106;2023-04-03T00:06:37;94941.00;;;5.00
30765;BMP180;494;48.744;10.106;2023-04-03T00:09:06;96274.00;;;4.00
30765;BMP180;494;48.744;10.106;2023-04-03T00:11:36;95817.00;;;3.90
30765;BMP180;494;48.744;10.106;2023-04-03T00:14:07;96519.00;;;4.60
30765;BMP180;494;48.744;10.106;2023-04-03T00:16:35;96104.00;;;6.40
30765;BMP180;494;48.744;10.106;2023-04-03T00:19:04;96342.00;;;2.20
30765;BMP180;494;48.744;10.106;2023-04-03T00:21:33;95100.00;;;5.70
30765;BMP180;494;48.744;10.106;2023-04-03T00:24:03;96303.00;;;5.90
30765;BMP180;494;48.744;10.106;2023-04-03T00:26:32;95489.00;;;1.90
30765;BMP180;494;48.744;10.106;2023-04-03T00:29:01;96470.00;;;6.40
30765;BMP180;494;48.744;10.106;2023-04-03T00:31:31;96216.00;;;6.40
30765;BMP180;494;48.744;10.106;2023-04-03T00:34:00;96181.00;;;6.10
30765;BMP180;494;48.744;10.106;2023-04-03T00:36:29;96462.00;;;6.40
30765;BMP180;494;48.744;10.106;2023-04-03T00:38:58;96204.00;;;2.40
30765;BMP180;494;48.744;10.106;2023-04-03T00:41:27;96100.00;;;5.90
30765;BMP180;494;48.744;10.106;2023-04-03T00:43:56;95620.00;;;4.40
30765;BMP180;494;48.744;10.106;2023-04-03T00:46:24;94995.00;;;6.30
30765;BMP180;494;48.744;10.106;2023-04-03T00:48:55;95475.00;;;6.30
30765;BMP180;494;48.744;10.106;2023-04-03T00:51:25;95252.00;;;5.20
30765;BMP180;494;48.744;10.106;2023-04-03T00:53:59;95925.00;;;5.80
30765;BMP180;494;48.744;10.106;2023-04-03T00:56:30;96443.00;;;6.30
30765;BMP180;494;48.744;10.106;2023-04-03T00:59:04;96299.00;;;6.20
30765;BMP180;494;48.744;10.106;2023-04-03T01:01:36;95635.00;;;6.40
30765;BMP180;494;48.744;10.106;2023-04-03T01:04:28;96506.00;;;6.30
30765;BMP180;494;48.744;10.106;2023-04-03T01:07:02;95203.00;;;6.20
30765;BMP180;494;48.744;10.106;2023-04-03T01:09:33;95270.00;;;2.40
30765;BMP180;494;48.744;10.106;2023-04-03T01:12:16;96468.00;;;6.20
30765;BMP180;494;48.744;10.106;2023-04-03T01:14:48;96457.00;;;6.40
30765;BMP180;494;48.744;10.106;2023-04-03T01:17:33;95318.00;;;6.50
30765;BMP180;494;48.744;10.106;2023-04-03T01:20:48;96403.00;;;3.50
30765;BMP180;494;48.744;10.106;2023-04-03T01:23:43;96560.00;;;6.50
30765;BMP180;494;48.744;10.106;2023-04-03T01:26:18;96429.00;;;6.50
30765;BMP180;494;48.744;10.106;2023-04-03T01:28:47;96056.00;;;6.50
30765;BMP180;494;48.744;10.106;2023-04-03T01:31:24;95878.00;;;6.40
30765;BMP180;494;48.744;10.106;2023-04-03T01:33:55;96197.00;;;6.50
30765;BMP180;494;48.744;10.106;2023-04-03T01:36:27;96155.00;;;6.50
30765;BMP180;494;48.744;10.106;2023-04-03T01:38:57;96309.00;;;4.20
30765;BMP180;494;48.744;10.106;2023-04-03T01:41:27;94865.00;;;1.60
30765;BMP180;494;48.744;10.106;2023-04-03T01:43:56;96408.00;;;6.60
30765;BMP180;494;48.744;10.106;2023-04-03T01:46:25;96573.00;;;6.50
30765;BMP180;494;48.744;10.106;2023-04-03T01:48:55;95564.00;;;6.50
30765;BMP180;494;48.744;10.106;2023-04-03T01:51:24;95446.00;;;5.00
30765;BMP180;494;48.744;10.106;2023-04-03T01:53:53;96448.00;;;2.70
30765;BMP180;494;48.744;10.106;2023-04-03T01:56:22;95176.00;;;3.70
30765;BMP180;494;48.744;10.106;2023-04-03T01:58:51;95958.00;;;6.40
30765;BMP180;494;48.744;10.106;2023-04-03T02:01:20;96141.00;;;6.50
30765;BMP180;494;48.744;10.106;2023-04-03T02:03:49;96051.00;;;5.70
30765;BMP180;494;48.744;10.106;2023-04-03T02:06:19;96349.00;;;4.20
30765;BMP180;494;48.744;10.106;2023-04-03T02:08:48;96315.00;;;6.40
30765;BMP180;494;48.744;10.106;2023-04-03T02:11:17;95187.00;;;3.50
30765;BMP180;494;48.744;10.106;2023-04-03T02:13:45;96457.00;;;5.50
30765;BMP180;494;48.744;10.106;2023-04-03T02:16:14;96240.00;;;6.50
30765;BMP180;494;48.744;10.106;2023-04-03T02:18:46;95198.00;;;2.70
30765;BMP180;494;48.744;10.106;2023-04-03T02:21:23;96091.00;;;6.40
30765;BMP180;494;48.744;10.106;2023-04-03T02:23:52;95921.00;;;6.30
30765;BMP180;494;48.744;10.106;2023-04-03T02:26:21;96177.00;;;6.30
30765;BMP180;494;48.744;10.106;2023-04-03T02:28:50;95990.00;;;4.50
30765;BMP180;494;48.744;10.106;2023-04-03T02:31:19;95306.00;;;6.00
30765;BMP180;494;48.744;10.106;2023-04-03T02:33:48;96039.00;;;6.10
30765;BMP180;494;48.744;10.106;2023-04-03T02:36:17;96205.00;;;6.20
30765;BMP180;494;48.744;10.106;2023-04-03T02:38:47;95327.00;;;6.10
30765;BMP180;494;48.744;10.106;2023-04-03T02:41:16;95217.00;;;6.00
30765;BMP180;494;48.744;10.106;2023-04-03T02:43:45;96242.00;;;5.30
30765;BMP180;494;48.744;10.106;2023-04-03T02:46:17;96157.00;;;5.80
30765;BMP180;494;48.744;10.106;2023-04-03T02:48:46;96243.00;;;6.00
30765;BMP180;494;48.744;10.106;2023-04-03T02:51:14;95368.00;;;1.20
30765;BMP180;494;48.744;10.106;2023-04-03T02:53:43;96078.00;;;6.10
30765;BMP180;494;48.744;10.106;2023-04-03T02:56:13;95218.00;;;5.70
30765;BMP180;494;48.744;10.106;2023-04-03T02:58:42;96081.00;;;4.20
30765;BMP180;494;48.744;10.106;2023-04-03T03:01:12;95839.00;;;4.40
30765;BMP180;494;48.744;10.106;2023-04-03T03:03:41;95919.00;;;2.60
30765;BMP180;494;48.744;10.106;2023-04-03T03:06:15;95846.00;;;6.10
30765;BMP180;494;48.744;10.106;2023-04-03T03:08:47;96005.00;;;6.20
30765;BMP180;494;48.744;10.106;2023-04-03T03:11:18;96312.00;;;4.50
30765;BMP180;494;48.744;10.106;2023-04-03T03:13:48;96426.00;;;6.20
30765;BMP180;494;48.744;10.106;2023-04-03T03:16:17;95932.00;;;6.20
30765;BMP180;494;48.744;10.106;2023-04-03T03:18:45;95256.00;;;3.50
30765;BMP180;494;48.744;10.106;2023-04-03T03:21:14;95902.00;;;6.00
30765;BMP180;494;48.744;10.106;2023-04-03T03:23:43;96102.00;;;6.20
30765;BMP180;494;48.744;10.106;2023-04-03T03:26:12;95576.00;;;6.00
30765;BMP180;494;48.744;10.106;2023-04-03T03:28:43;96228.00;;;6.10
30765;BMP180;494;48.744;10.106;2023-04-03T03:31:13;96410.00;;;1.30
30765;BMP180;494;48.744;10.106;2023-04-03T03:33:42;96451.00;;;6.10
30765;BMP180;494;48.744;10.106;2023-04-03T03:36:11;96146.00;;;6.20
30765;BMP180;494;48.744;10.106;2023-04-03T03:38:40;95594.00;;;5.80
30765;BMP180;494;48.744;10.106;2023-04-03T03:41:09;96217.00;;;3.30
30765;BMP180;494;48.744;10.106;2023-04-03T03:43:38;96216.00;;;5.10
30765;BMP180;494;48.744;10.106;2023-04-03T03:46:08;96165.00;;;6.00
30765;BMP180;494;48.744;10.106;2023-04-03T03:48:37;96298.00;;;5.70
30765;BMP180;494;48.744;10.106;2023-04-03T03:51:06;95056.00;;;5.70
30765;BMP180;494;48.744;10.106;2023-04-03T03:53:35;95897.00;;;4.70
30765;BMP180;494;48.744;10.106;2023-04-03T03:56:05;96076.00;;;5.70
30765;BMP180;494;48.744;10.106;2023-04-03T03:58:34;95867.00;;;4.00
30765;BMP180;494;48.744;10.106;2023-04-03T04:01:03;96322.00;;;5.70
30765;BMP180;494;48.744;10.106;2023-04-03T04:03:35;95916.00;;;5.80
30765;BMP180;494;48.744;10.106;2023-04-03T04:06:04;95582.00;;;6.00
30765;BMP180;494;48.744;10.106;2023-04-03T04:08:33;96244.00;;;6.10
30765;BMP180;494;48.744;10.106;2023-04-03T04:11:02;95908.00;;;6.00
30765;BMP180;494;48.744;10.106;2023-04-03T04:13:31;96252.00;;;6.10
30765;BMP180;494;48.744;10.106;2023-04-03T04:16:00;96437.00;;;6.10
30765;BMP180;494;48.744;10.106;2023-04-03T04:18:29;96111.00;;;6.10
30765;BMP180;494;48.744;10.106;2023-04-03T04:20:59;96211.00;;;5.90
30765;BMP180;494;48.744;10.106;2023-04-03T04:23:28;96124.00;;;5.90
30765;BMP180;494;48.744;10.106;2023-04-03T04:25:57;96179.00;;;6.00
30765;BMP180;494;48.744;10.106;2023-04-03T04:28:25;96257.00;;;3.10
30765;BMP180;494;48.744;10.106;2023-04-03T04:30:54;96630.00;;;5.20
30765;BMP180;494;48.744;10.106;2023-04-03T04:33:22;96389.00;;;5.10
30765;BMP180;494;48.744;10.106;2023-04-03T04:35:51;96413.00;;;5.30
30765;BMP180;494;48.744;10.106;2023-04-03T04:38:26;95562.00;;;5.50
30765;BMP180;494;48.744;10.106;2023-04-03T04:41:06;95823.00;;;3.20
30765;BMP180;494;48.744;10.106;2023-04-03T04:43:35;95426.00;;;3.20
30765;BMP180;494;48.744;10.106;2023-04-03T04:46:06;96358.00;;;5.10
30765;BMP180;494;48.744;10.106;2023-04-03T04:48:36;96441.00;;;5.00
30765;BMP180;494;48.744;10.106;2023-04-03T04:51:10;96321.00;;;5.10
30765;BMP180;494;48.744;10.106;2023-04-03T04:53:41;96195.00;;;4.70
30765;BMP180;494;48.744;10.106;2023-04-03T04:56:10;96304.00;;;5.20
30765;BMP180;494;48.744;10.106;2023-04-03T04:58:39;95755.00;;;5.20
30765;BMP180;494;48.744;10.106;2023-04-03T05:01:11;96073.00;;;5.10
30765;BMP180;494;48.744;10.106;2023-04-03T05:03:42;96099.00;;;5.00
30765;BMP180;494;48.744;10.106;2023-04-03T05:06:14;96332.00;;;5.10
30765;BMP180;494;48.744;10.106;2023-04-03T05:08:44;96163.00;;;5.10
30765;BMP180;494;48.744;10.106;2023-04-03T05:11:13;96318.00;;;3.30
30765;BMP180;494;48.744;10.106;2023-04-03T05:13:41;96331.00;;;5.00
30765;BMP180;494;48.744;10.106;2023-04-03T05:16:10;95391.00;;;5.00
30765;BMP180;494;48.744;10.106;2023-04-03T05:18:46;96389.00;;;0.00
30765;BMP180;494;48.744;10.106;2023-04-03T05:21:35;96281.00;;;5.20
30765;BMP180;494;48.744;10.106;2023-04-03T05:25:05;96141.00;;;5.20
30765;BMP180;494;48.744;10.106;2023-04-03T05:28:21;96445.00;;;5.20
30765;BMP180;494;48.744;10.106;2023-04-03T05:30:53;96403.00;;;5.20
30765;BMP180;494;48.744;10.106;2023-04-03T05:33:24;96371.00;;;4.20
30765;BMP180;494;48.744;10.106;2023-04-03T05:35:54;95007.00;;;5.30
30765;BMP180;494;48.744;10.106;2023-04-03T05:38:23;95403.00;;;5.20
30765;BMP180;494;48.744;10.106;2023-04-03T05:40:54;96466.00;;;4.00
30765;BMP180;494;48.744;10.106;2023-04-03T05:43:23;94982.00;;;5.20
30765;BMP180;494;48.744;10.106;2023-04-03T05:45:52;96128.00;;;5.40
30765;BMP180;494;48.744;10.106;2023-04-03T05:48:21;95623.00;;;5.40
30765;BMP180;494;48.744;10.106;2023-04-03T05:50:50;96207.00;;;5.60
30765;BMP180;494;48.744;10.106;2023-04-03T05:53:28;96045.00;;;4.20
30765;BMP180;494;48.744;10.106;2023-04-03T05:56:04;96543.00;;;5.70
30765;BMP180;494;48.744;10.106;2023-04-03T05:58:35;96475.00;;;5.80
30765;BMP180;494;48.744;10.106;2023-04-03T06:01:17;96163.00;;;1.00
30765;BMP180;494;48.744;10.106;2023-04-03T06:03:46;95825.00;;;4.60
30765;BMP180;494;48.744;10.106;2023-04-03T06:06:15;96152.00;;;5.20
30765;BMP180;494;48.744;10.106;2023-04-03T06:08:44;96447.00;;;4.50
30765;BMP180;494;48.744;10.106;2023-04-03T06:11:15;95833.00;;;5.80
30765;BMP180;494;48.744;10.106;2023-04-03T06:13:43;96414.00;;;5.60
30765;BMP180;494;48.744;10.106;2023-04-03T06:16:19;96012.00;;;3.60
30765;BMP180;494;48.744;10.106;2023-04-03T06:18:48;96453.00;;;5.80
30765;BMP180;494;48.744;10.106;2023-04-03T06:21:17;96350.00;;;4.00
30765;BMP180;494;48.744;10.106;2023-04-03T06:23:45;96433.00;;;3.90
30765;BMP180;494;48.744;10.106;2023-04-03T06:26:16;96282.00;;;2.70
30765;BMP180;494;48.744;10.106;2023-04-03T06:28:45;96570.00;;;2.80
30765;BMP180;494;48.744;10.106;2023-04-03T06:31:14;95314.00;;;5.70
30765;BMP180;494;48.744;10.106;2023-04-03T06:33:44;96586.00;;;5.80
30765;BMP180;494;48.744;10.106;2023-04-03T06:36:13;96417.00;;;5.80
30765;BMP180;494;48.744;10.106;2023-04-03T06:38:42;96135.00;;;5.70
30765;BMP180;494;48.744;10.106;2023-04-03T06:41:11;96518.00;;;5.80
30765;BMP180;494;48.744;10.106;2023-04-03T06:43:42;96193.00;;;5.80
30765;BMP180;494;48.744;10.106;2023-04-03T06:46:15;96462.00;;;5.50
30765;BMP180;494;48.744;10.106;2023-04-03T06:48:45;96376.00;;;3.70
30765;BMP180;494;48.744;10.106;2023-04-03T06:51:22;96384.00;;;5.70
30765;BMP180;494;48.744;10.106;2023-04-03T06:53:53;95510.00;;;1.80
30765;BMP180;494;48.744;10.106;2023-04-03T06:56:23;96089.00;;;5.60
30765;BMP180;494;48.744;10.106;2023-04-03T06:58:54;96113.00;;;3.60
30765;BMP180;494;48.744;10.106;2023-04-03T07:01:26;96477.00;;;5.80
30765;BMP180;494;48.744;10.106;2023-04-03T07:03:55;96411.00;;;4.60
30765;BMP180;494;48.744;10.106;2023-04-03T07:06:25;96282.00;;;5.80
30765;BMP180;494;48.744;10.106;2023-04-03T07:08:55;96129.00;;;5.00
30765;BMP180;494;48.744;10.106;2023-04-03T07:11:24;96444.00;;;3.40
30765;BMP180;494;48.744;10.106;2023-04-03T07:13:54;96075.00;;;5.80
30765;BMP180;494;48.744;10.106;2023-04-03T07:16:23;96285.00;;;6.00
30765;BMP180;494;48.744;10.106;2023-04-03T07:18:52;96538.00;;;6.00
30765;BMP180;494;48.744;10.106;2023-04-03T07:21:21;96128.00;;;5.90
30765;BMP180;494;48.744;10.106;2023-04-03T07:23:50;95945.00;;;6.20
30765;BMP180;494;48.744;10.106;2023-04-03T07:26:19;96107.00;;;6.10
30765;BMP180;494;48.744;10.106;2023-04-03T07:28:49;96414.00;;;6.10
30765;BMP180;494;48.744;10.106;2023-04-03T07:31:20;94973.00;;;6.10
30765;BMP180;494;48.744;10.106;2023-04-03T07:33:57;95548.00;;;3.40
30765;BMP180;494;48.744;10.106;2023-04-03T07:36:27;96545.00;;;3.30
30765;BMP180;494;48.744;10.106;2023-04-03T07:39:00;96244.00;;;5.50
30765;BMP180;494;48.744;10.106;2023-04-03T07:41:32;96415.00;;;6.00
30765;BMP180;494;48.744;10.106;2023-04-03T07:44:01;95044.00;;;3.10
30765;BMP180;494;48.744;10.106;2023-04-03T07:46:37;96598.00;;;2.40
30765;BMP180;494;48.744;10.106;2023-04-03T07:49:08;95416.00;;;6.90
30765;BMP180;494;48.744;10.106;2023-04-03T07:51:37;95668.00;;;7.00
30765;BMP180;494;48.744;10.106;2023-04-03T07:54:07;96328.00;;;3.00
30765;BMP180;494;48.744;10.106;2023-04-03T07:56:46;95588.00;;;6.40
30765;BMP180;494;48.744;10.106;2023-04-03T07:59:23;96421.00;;;6.70
30765;BMP180;494;48.744;10.106;2023-04-03T08:02:07;95931.00;;;6.80
30765;BMP180;494;48.744;10.106;2023-04-03T08:04:42;95910.00;;;7.00
30765;BMP180;494;48.744;10.106;2023-04-03T08:07:21;95482.00;;;5.80
30765;BMP180;494;48.744;10.106;2023-04-03T08:09:52;95560.00;;;3.80
30765;BMP180;494;48.744;10.106;2023-04-03T08:12:23;96351.00;;;6.10
30765;BMP180;494;48.744;10.106;2023-04-03T08:15:08;95752.00;;;6.80
30765;BMP180;494;48.744;10.106;2023-04-03T08:17:43;96500.00;;;4.90
30765;BMP180;494;48.744;10.106;2023-04-03T08:20:17;96555.00;;;7.10
30765;BMP180;494;48.744;10.106;2023-04-03T08:22:51;95805.00;;;7.70
30765;BMP180;494;48.744;10.106;2023-04-03T08:25:38;95691.00;;;7.70
30765;BMP180;494;48.744;10.106;2023-04-03T08:28:21;96414.00;;;7.70
30765;BMP180;494;48.744;10.106;2023-04-03T08:31:02;96512.00;;;7.80
30765;BMP180;494;48.744;10.106;2023-04-03T08:33:35;96427.00;;;4.30
30765;BMP180;494;48.744;10.106;2023-04-03T08:36:06;96415.00;;;8.00
30765;BMP180;494;48.744;10.106;2023-04-03T08:38:35;95314.00;;;6.40
30765;BMP180;494;48.744;10.106;2023-04-03T08:41:14;96569.00;;;8.20
30765;BMP180;494;48.744;10.106;2023-04-03T08:43:58;96581.00;;;7.90
30765;BMP180;494;48.744;10.106;2023-04-03T08:46:42;95288.00;;;3.70
30765;BMP180;494;48.744;10.106;2023-04-03T08:49:25;95890.00;;;7.80
30765;BMP180;494;48.744;10.106;2023-04-03T08:52:02;95872.00;;;3.30
30765;BMP180;494;48.744;10.106;2023-04-03T08:54:39;96662.00;;;5.40
30765;BMP180;494;48.744;10.106;2023-04-03T08:57:12;96040.00;;;5.60
30765;BMP180;494;48.744;10.106;2023-04-03T08:59:43;95656.00;;;4.10
30765;BMP180;494;48.744;10.106;2023-04-03T09:02:25;96280.00;;;6.10
30765;BMP180;494;48.744;10.106;2023-04-03T09:04:58;96042.00;;;5.90
30765;BMP180;494;48.744;10.106;2023-04-03T09:07:41;95786.00;;;8.20
30765;BMP180;494;48.744;10.106;2023-04-03T09:10:13;96427.00;;;8.60
30765;BMP180;494;48.744;10.106;2023-04-03T09:12:47;95769.00;;;7.40
30765;BMP180;494;48.744;10.106;2023-04-03T09:15:21;96447.00;;;8.60
30765;BMP180;494;48.744;10.106;2023-04-03T09:18:15;96595.00;;;7.00
30765;BMP180;494;48.744;10.106;2023-04-03T09:20:57;96795.00;;;9.00
30765;BMP180;494;48.744;10.106;2023-04-03T09:23:34;96438.00;;;8.70
30765;BMP180;494;48.744;10.106;2023-04-03T09:26:14;96541.00;;;9.10
30765;BMP180;494;48.744;10.106;2023-04-03T09:28:48;96552.00;;;8.90
30765;BMP180;494;48.744;10.106;2023-04-03T09:31:23;96186.00;;;8.30
30765;BMP180;494;48.744;10.106;2023-04-03T09:33:56;96560.00;;;5.90
30765;BMP180;494;48.744;10.106;2023-04-03T09:36:45;95563.00;;;9.40
30765;BMP180;494;48.744;10.106;2023-04-03T09:39:17;95467.00;;;9.70
30765;BMP180;494;48.744;10.106;2023-04-03T09:42:00;96345.00;;;9.80
30765;BMP180;494;48.744;10.106;2023-04-03T09:44:36;95784.00;;;8.40
30765;BMP180;494;48.744;10.106;2023-04-03T09:47:24;95643.00;;;6.80
30765;BMP180;494;48.744;10.106;2023-04-03T09:50:20;96497.00;;;9.60
30765;BMP180;494;48.744;10.106;2023-04-03T09:53:30;96750.00;;;8.50
30765;BMP180;494;48.744;10.106;2023-04-03T09:56:01;96443.00;;;8.30
30765;BMP180;494;48.744;10.106;2023-04-03T09:58:35;96086.00;;;9.20
30765;BMP180;494;48.744;10.106;2023-04-03T10:01:43;96560.00;;;6.80
30765;BMP180;494;48.744;10.106;2023-04-03T10:04:25;95641.00;;;6.90
30765;BMP180;494;48.744;10.106;2023-04-03T10:07:27;94975.00;;;8.20
30765;BMP180;494;48.744;10.106;2023-04-03T10:10:16;95928.00;;;8.30
30765;BMP180;494;48.744;10.106;2023-04-03T10:13:05;95261.00;;;9.00
30765;BMP180;494;48.744;10.106;2023-04-03T10:15:43;96490.00;;;9.20
30765;BMP180;494;48.744;10.106;2023-04-03T10:18:32;96539.00;;;9.40
30765;BMP180;494;48.744;10.106;2023-04-03T10:21:15;95661.00;;;9.50
30765;BMP180;494;48.744;10.106;2023-04-03T10:24:09;95560.00;;;8.30
30765;BMP180;494;48.744;10.106;2023-04-03T10:26:57;96186.00;;;9.40
30765;BMP180;494;48.744;10.106;2023-04-03T10:29:40;96509.00;;;5.40
30765;BMP180;494;48.744;10.106;2023-04-03T10:32:41;96667.00;;;5.70
30765;BMP180;494;48.744;10.106;2023-04-03T10:35:20;95992.00;;;8.80
30765;BMP180;494;48.744;10.106;2023-04-03T10:38:07;96626.00;;;8.60
30765;BMP180;494;48.744;10.106;2023-04-03T10:40:53;95502.00;;;7.90
30765;BMP180;494;48.744;10.106;2023-04-03T10:43:37;95811.00;;;8.60
30765;BMP180;494;48.744;10.106;2023-04-03T10:46:13;95670.00;;;5.10
30765;BMP180;494;48.744;10.106;2023-04-03T10:49:04;95336.00;;;7.90
30765;BMP180;494;48.744;10.106;2023-04-03T10:51:54;95093.00;;;6.40
30765;BMP180;494;48.744;10.106;2023-04-03T10:54:38;95715.00;;;7.20
30765;BMP180;494;48.744;10.106;2023-04-03T10:57:10;95299.00;;;7.40
30765;BMP180;494;48.744;10.106;2023-04-03T10:59:48;95360.00;;;4.50
30765;BMP180;494;48.744;10.106;2023-04-03T11:02:26;96676.00;;;8.70
30765;BMP180;494;48.744;10.106;2023-04-03T11:05:03;95364.00;;;7.30
30765;BMP180;494;48.744;10.106;2023-04-03T11:07:41;95957.00;;;8.40
30765;BMP180;494;48.744;10.106;2023-04-03T11:10:22;95435.00;;;8.30
30765;BMP180;494;48.744;10.106;2023-04-03T11:12:58;95789.00;;;8.60
30765;BMP180;494;48.744;10.106;2023-04-03T11:15:32;96639.00;;;8.60
30765;BMP180;494;48.744;10.106;2023-04-03T11:18:10;96699.00;;;7.50
30765;BMP180;494;48.744;10.106;2023-04-03T11:20:48;95755.00;;;8.60
30765;BMP180;494;48.744;10.106;2023-04-03T11:23:24;95495.00;;;6.60
30765;BMP180;494;48.744;10.106;2023-04-03T11:26:11;96394.00;;;8.40
30765;BMP180;494;48.744;10.106;2023-04-03T11:28:42;96633.00;;;8.50
30765;BMP180;494;48.744;10.106;2023-04-03T11:31:39;95676.00;;;7.70
30765;BMP180;494;48.744;10.106;2023-04-03T11:34:27;96534.00;;;7.80
30765;BMP180;494;48.744;10.106;2023-04-03T11:37:11;96094.00;;;8.60
30765;BMP180;494;48.744;10.106;2023-04-03T11:39:52;96414.00;;;8.40
30765;BMP180;494;48.744;10.106;2023-04-03T11:42:32;96264.00;;;8.90
30765;BMP180;494;48.744;10.106;2023-04-03T11:45:32;96527.00;;;9.10
30765;BMP180;494;48.744;10.106;2023-04-03T11:48:09;95338.00;;;9.20
30765;BMP180;494;48.744;10.106;2023-04-03T11:50:57;95830.00;;;7.90
30765;BMP180;494;48.744;10.106;2023-04-03T11:53:33;95638.00;;;5.70
30765;BMP180;494;48.744;10.106;2023-04-03T11:56:29;95643.00;;;5.70
30765;BMP180;494;48.744;10.106;2023-04-03T11:59:24;95513.00;;;9.20
30765;BMP180;494;48.744;10.106;2023-04-03T12:02:00;95755.00;;;6.70
30765;BMP180;494;48.744;10.106;2023-04-03T12:04:38;95844.00;;;6.70
30765;BMP180;494;48.744;10.106;2023-04-03T12:07:18;96371.00;;;9.30
30765;BMP180;494;48.744;10.106;2023-04-03T12:09:59;95517.00;;;8.00
30765;BMP180;494;48.744;10.106;2023-04-03T12:12:37;95860.00;;;5.60
30765;BMP180;494;48.744;10.106;2023-04-03T12:15:46;95241.00;;;9.40
30765;BMP180;494;48.744;10.106;2023-04-03T12:18:41;95572.00;;;6.00
30765;BMP180;494;48.744;10.106;2023-04-03T12:21:14;95738.00;;;6.10
30765;BMP180;494;48.744;10.106;2023-04-03T12:24:25;96370.00;;;10.10
30765;BMP180;494;48.744;10.106;2023-04-03T12:30:18;95573.00;;;13.10
30765;BMP180;494;48.744;10.106;2023-04-03T12:33:27;96463.00;;;13.50
30765;BMP180;494;48.744;10.106;2023-04-03T12:36:26;96600.00;;;12.30
30765;BMP180;494;48.744;10.106;2023-04-03T12:39:25;95605.00;;;11.70
30765;BMP180;494;48.744;10.106;2023-04-03T12:43:05;95810.00;;;10.20
30765;BMP180;494;48.744;10.106;2023-04-03T12:46:36;95327.00;;;9.30
30765;BMP180;494;48.744;10.106;2023-04-03T12:53:26;95606.00;;;10.70
30765;BMP180;494;48.744;10.106;2023-04-03T12:56:57;96440.00;;;11.10
30765;BMP180;494;48.744;10.106;2023-04-03T13:00:05;95611.00;;;10.10
30765;BMP180;494;48.744;10.106;2023-04-03T13:02:45;96280.00;;;11.00
30765;BMP180;494;48.744;10.106;2023-04-03T13:07:45;95557.00;;;10.40
30765;BMP180;494;48.744;10.106;2023-04-03T13:08:49;95629.00;;;11.80
30765;BMP180;494;48.744;10.106;2023-04-03T13:11:21;96209.00;;;10.90
30765;BMP180;494;48.744;10.106;2023-04-03T13:13:59;96327.00;;;13.10
30765;BMP180;494;48.744;10.106;2023-04-03T13:16:35;95823.00;;;9.30
30765;BMP180;494;48.744;10.106;2023-04-03T13:19:32;96359.00;;;12.60
30765;BMP180;494;48.744;10.106;2023-04-03T13:31:42;96408.00;;;11.10
30765;BMP180;494;48.744;10.106;2023-04-03T13:34:54;96102.00;;;10.20
30765;BMP180;494;48.744;10.106;2023-04-03T13:40:37;95091.00;;;9.90
30765;BMP180;494;48.744;10.106;2023-04-03T13:50:58;96273.00;;;8.70
30765;BMP180;494;48.744;10.106;2023-04-03T13:53:45;94915.00;;;10.40
30765;BMP180;494;48.744;10.106;2023-04-03T13:56:35;96500.00;;;12.10
30765;BMP180;494;48.744;10.106;2023-04-03T13:59:24;95444.00;;;12.50
30765;BMP180;494;48.744;10.106;2023-04-03T14:02:42;96403.00;;;10.40
30765;BMP180;494;48.744;10.106;2023-04-03T14:05:38;95729.00;;;10.90
30765;BMP180;494;48.744;10.106;2023-04-03T14:08:38;96327.00;;;6.40
30765;BMP180;494;48.744;10.106;2023-04-03T14:11:14;95353.00;;;9.10
30765;BMP180;494;48.744;10.106;2023-04-03T14:14:09;96422.00;;;10.10
30765;BMP180;494;48.744;10.106;2023-04-03T14:16:51;96372.00;;;10.20
30765;BMP180;494;48.744;10.106;2023-04-03T14:19:31;96343.00;;;10.20
30765;BMP180;494;48.744;10.106;2023-04-03T14:22:24;95390.00;;;9.50
30765;BMP180;494;48.744;10.106;2023-04-03T14:25:11;94990.00;;;6.90
30765;BMP180;494;48.744;10.106;2023-04-03T14:27:56;95754.00;;;7.00
30765;BMP180;494;48.744;10.106;2023-04-03T14:30:55;95586.00;;;10.40
30765;BMP180;494;48.744;10.106;2023-04-03T14:33:24;95615.00;;;10.00
30765;BMP180;494;48.744;10.106;2023-04-03T14:36:27;95242.00;;;15.70
30765;BMP180;494;48.744;10.106;2023-04-03T14:39:45;95626.00;;;17.00
30765;BMP180;494;48.744;10.106;2023-04-03T14:42:43;96339.00;;;18.00
30765;BMP180;494;48.744;10.106;2023-04-03T14:46:13;96249.00;;;15.70
30765;BMP180;494;48.744;10.106;2023-04-03T14:57:55;96480.00;;;11.60
30765;BMP180;494;48.744;10.106;2023-04-03T15:00:34;95807.00;;;6.80
30765;BMP180;494;48.744;10.106;2023-04-03T15:03:20;96118.00;;;9.90
30765;BMP180;494;48.744;10.106;2023-04-03T15:06:06;96114.00;;;9.90
30765;BMP180;494;48.744;10.106;2023-04-03T15:09:23;95628.00;;;9.80
30765;BMP180;494;48.744;10.106;2023-04-03T15:12:16;95327.00;;;10.60
30765;BMP180;494;48.744;10.106;2023-04-03T15:15:16;96416.00;;;12.10
30765;BMP180;494;48.744;10.106;2023-04-03T15:18:01;94918.00;;;11.30
30765;BMP180;494;48.744;10.106;2023-04-03T15:21:09;96263.00;;;10.50
30765;BMP180;494;48.744;10.106;2023-04-03T15:24:11;95955.00;;;15.10
30765;BMP180;494;48.744;10.106;2023-04-03T15:27:24;95533.00;;;16.80
30765;BMP180;494;48.744;10.106;2023-04-03T15:30:21;96299.00;;;14.40
30765;BMP180;494;48.744;10.106;2023-04-03T15:33:05;95583.00;;;13.40
30765;BMP180;494;48.744;10.106;2023-04-03T15:36:20;95918.00;;;11.40
30765;BMP180;494;48.744;10.106;2023-04-03T15:39:09;96446.00;;;10.60
30765;BMP180;494;48.744;10.106;2023-04-03T15:41:53;95653.00;;;8.80
30765;BMP180;494;48.744;10.106;2023-04-03T15:44:33;94830.00;;;9.90
30765;BMP180;494;48.744;10.106;2023-04-03T15:47:17;96485.00;;;6.30
30765;BMP180;494;48.744;10.106;2023-04-03T15:50:08;96560.00;;;9.70
30765;BMP180;494;48.744;10.106;2023-04-03T15:53:01;95284.00;;;6.80
30765;BMP180;494;48.744;10.106;2023-04-03T15:56:11;96507.00;;;10.60
30765;BMP180;494;48.744;10.106;2023-04-03T15:59:29;95399.00;;;9.30
30765;BMP180;494;48.744;10.106;2023-04-03T16:02:07;95686.00;;;6.40
30765;BMP180;494;48.744;10.106;2023-04-03T16:05:34;95567.00;;;11.00
30765;BMP180;494;48.744;10.106;2023-04-03T16:08:25;95619.00;;;12.20
30765;BMP180;494;48.744;10.106;2023-04-03T16:11:05;95010.00;;;12.40
30765;BMP180;494;48.744;10.106;2023-04-03T16:13:44;96317.00;;;9.20
30765;BMP180;494;48.744;10.106;2023-04-03T16:16:16;95866.00;;;11.50
30765;BMP180;494;48.744;10.106;2023-04-03T16:19:07;96326.00;;;11.50